La Rue, Ohio
Current Conditions -  °F | °C
As of 2:53 AM on Saturday 20 Dec 2014 (Local Time) from KMNN Reporting Station
Overcast Overcast  
Wind Chill: 28°   Ceiling: 1800
Heat Index: 28°   Visibility: 8mi
Dew Point: 22°   Wind: 3mph
Humidity: 78%   Direction: 180°S
Pressure: 30.27"   Gusts: NA
Location:  40.58°N, 83.38°W
Report Text: KMNN 200753Z AUTO 18003KT 8SM OVC018 M02/M06 A3027 RMK AO2 SLP264 T10221056 TSNO
Loading
Personal Weather Stations






























Interactive Weather Map New forecast layout! Learn more

10-Day Weather Forecast

Advertisements
Track Severe Weather on mobile